Data for 01/03/2013

Time Sea-Level Adjusted Pressure Absolute Pressure Temperature Relative Humidity Dew Point   
(mb) (inHg) (mb) (inHg) (C) (F) (%) (C) (F)
00:05 1027 30.33 856 25.28 -13.6 7.6 72 -17.6 0.3
00:10 1027 30.33 856 25.28 -13.3 8 70 -17.7 0.1
00:15 1027 30.33 856 25.28 -13.3 8 71 -17.6 0.3
00:20 1027 30.33 856 25.28 -13.6 7.5 73 -17.5 0.5
00:25 1027 30.33 856 25.28 -13.4 7.8 71 -17.7 0.2
00:30 1027 30.33 856 25.28 -13.3 8.1 71 -17.5 0.4
00:35 1027 30.33 856 25.28 -13.3 8.1 70 -17.6 0.3
00:40 1027 30.33 856 25.28 -13.2 8.2 70 -17.6 0.4
00:45 1027 30.33 856 25.28 -13.3 8 70 -17.7 0.2
00:50 1027 30.33 856 25.28 -13.4 8 70 -17.7 0.1
00:55 1027 30.33 856 25.28 -13.3 8 69 -17.9 -0.3
01:00 1027 30.33 856 25.28 -13 8.6 68 -17.8 0
01:05 1027 30.33 856 25.28 -12.9 8.7 69 -17.5 0.4
01:10 1027 30.33 856 25.28 -12.8 8.9 68 -17.5 0.5
01:15 1027 30.33 856 25.28 -12.5 9.5 67 -17.5 0.5
01:20 1027 30.33 856 25.28 -12.7 9.2 67 -17.5 0.5
01:25 1027 30.33 856 25.28 -12.9 8.7 68 -17.6 0.3
01:30 1027 30.33 856 25.28 -12.9 8.8 68 -17.7 0.2
01:35 1027 30.33 856 25.28 -12.8 8.9 68 -17.5 0.4
01:40 1026 30.3 856 25.28 -12.7 9.1 68 -17.4 0.6
01:45 1026 30.3 856 25.28 -12.5 9.4 68 -17.3 0.9
01:50 1026 30.3 856 25.28 -12.5 9.6 68 -17.3 0.9
01:55 1026 30.3 856 25.28 -12.8 9 68 -17.5 0.6
02:00 1026 30.3 856 25.28 -13 8.7 68 -17.7 0.1
02:05 1026 30.3 856 25.28 -13.1 8.5 69 -17.7 0.2
02:10 1026 30.3 856 25.28 -13.3 8 69 -17.8 -0.1
02:15 1026 30.3 855 25.25 -13.6 7.6 70 -18 -0.3
02:20 1026 30.3 855 25.25 -13.6 7.6 70 -18 -0.3
02:25 1026 30.3 855 25.25 -13.1 8.4 67 -17.9 -0.3
02:30 1026 30.3 856 25.28 -12.9 8.8 66 -17.9 -0.2
02:35 1026 30.3 856 25.28 -13 8.6 68 -17.8 -0
02:40 1026 30.3 855 25.25 -13.1 8.5 69 -17.6 0.3
02:45 1026 30.3 855 25.25 -13.1 8.5 69 -17.6 0.3
02:50 1026 30.3 855 25.25 -13.1 8.5 69 -17.6 0.3
02:55 1026 30.3 855 25.25 -13.2 8.2 69 -17.7 0.1
03:00 1026 30.3 855 25.25 -13.2 8.2 69 -17.7 0.1
03:05 1026 30.3 855 25.25 -13.3 8 70 -17.7 0.2
03:10 1026 30.3 855 25.25 -12.3 9.9 65 -17.5 0.5
03:15 1026 30.3 855 25.25 -11.9 10.6 65 -17.2 1.1
03:20 1026 30.3 855 25.25 -12.1 10.2 66 -17.3 0.8
03:25 1026 30.3 855 25.25 -12.7 9.2 67 -17.6 0.3
03:30 1026 30.3 855 25.25 -12.5 9.4 66 -17.6 0.3
03:35 1026 30.3 855 25.25 -12.8 9 67 -17.7 0.1
03:40 1026 30.3 855 25.25 -12.7 9.2 66 -17.8 0
03:45 1026 30.3 855 25.25 -12.8 9 67 -17.7 0.1
03:50 1026 30.3 855 25.25 -12.8 9 66 -17.9 -0.2
03:55 1026 30.3 855 25.25 -12.7 9.1 65 -17.9 -0.2
04:00 1026 30.3 855 25.25 -12.9 8.8 66 -17.9 -0.3
04:05 1026 30.3 855 25.25 -13 8.6 67 -17.9 -0.3
04:10 1026 30.3 855 25.25 -12.9 8.7 67 -17.9 -0.2
04:15 1026 30.3 855 25.25 -13 8.7 67 -17.9 -0.2
04:20 1026 30.3 855 25.25 -12.9 8.8 67 -17.8 -0.1
04:25 1026 30.3 855 25.25 -12.8 8.9 67 -17.7 0.1
04:30 1026 30.3 855 25.25 -12.7 9.2 67 -17.7 0.1
04:35 1026 30.3 855 25.25 -12.4 9.6 66 -17.6 0.4
04:40 1026 30.3 855 25.25 -12.5 9.6 66 -17.5 0.5
04:45 1026 30.3 855 25.25 -12.9 8.7 67 -17.9 -0.2
04:50 1026 30.3 855 25.25 -13 8.6 66 -18.1 -0.6
04:55 1026 30.3 855 25.25 -13.2 8.3 67 -18.1 -0.6
05:00 1026 30.3 855 25.25 -13.2 8.3 66 -18.2 -0.7
05:05 1025 30.27 855 25.25 -13 8.7 66 -18.1 -0.7
05:10 1025 30.27 855 25.25 -12.9 8.7 66 -18 -0.4
05:15 1025 30.27 855 25.25 -13 8.6 66 -18 -0.4
05:20 1025 30.27 854 25.22 -13 8.6 66 -18.1 -0.7
05:25 1025 30.27 854 25.22 -13.1 8.4 67 -18 -0.3
05:30 1025 30.27 854 25.22 -13.1 8.5 68 -17.8 -0.1
05:35 1025 30.27 854 25.22 -13.2 8.2 68 -17.9 -0.2
05:40 1025 30.27 854 25.22 -12.9 8.9 67 -17.7 0.1
05:45 1025 30.27 854 25.22 -12.6 9.3 68 -17.4 0.7
05:50 1025 30.27 854 25.22 -12.2 10.1 65 -17.4 0.7
05:55 1025 30.27 854 25.22 -12 10.4 64 -17.5 0.5
06:00 1025 30.27 854 25.22 -12.4 9.7 65 -17.6 0.2
06:05 1025 30.27 854 25.22 -12.6 9.4 66 -17.7 0.1
06:10 1025 30.27 854 25.22 -12.6 9.3 67 -17.5 0.5
06:15 1025 30.27 854 25.22 -12.7 9.2 66 -17.7 0.1
06:20 1025 30.27 854 25.22 -12.7 9.1 67 -17.7 0.1
06:25 1025 30.27 854 25.22 -12.8 9 67 -17.7 0.2
06:30 1025 30.27 854 25.22 -13.1 8.3 69 -17.7 0.1
06:35 1025 30.27 854 25.22 -13.2 8.3 69 -17.8 0
06:40 1025 30.27 854 25.22 -13.3 8.1 69 -17.7 0.1
06:45 1025 30.27 855 25.25 -13.3 8.1 70 -17.7 0.2
06:50 1025 30.27 855 25.25 -13.2 8.3 70 -17.6 0.4
06:55 1025 30.27 855 25.25 -13.2 8.3 74 -16.8 1.7
07:00 1025 30.27 855 25.25 -13.1 8.5 72 -17.1 1.2
07:05 1025 30.27 854 25.22 -13.1 8.4 72 -17.2 1
07:10 1025 30.27 854 25.22 -13.2 8.3 72 -17.1 1.2
07:15 1025 30.27 854 25.22 -13 8.6 72 -17.1 1.1
07:20 1025 30.27 854 25.22 -13.2 8.3 73 -17.1 1.3
07:25 1025 30.27 854 25.22 -13.8 7.3 74 -17.5 0.5
07:30 1025 30.27 854 25.22 -13.4 7.8 70 -17.8 -0.1
07:35 1025 30.27 854 25.22 -12.9 8.8 70 -17.3 0.8
07:40 1025 30.27 854 25.22 -12.6 9.3 69 -17.2 1
07:45 1025 30.27 854 25.22 -12.2 10 67 -17.2 1.1
07:50 1025 30.27 854 25.22 -12.5 9.5 68 -17.2 1
07:55 1025 30.27 854 25.22 -13.2 8.3 68 -17.8 -0.1
08:00 1025 30.27 854 25.22 -12.9 8.8 66 -18 -0.5
08:05 1025 30.27 854 25.22 -12.9 8.7 66 -18 -0.4
08:10 1025 30.27 854 25.22 -13 8.5 66 -18.1 -0.6
08:15 1025 30.27 854 25.22 -13.3 8.1 68 -18.1 -0.5
08:20 1025 30.27 854 25.22 -13.4 7.8 68 -18.2 -0.8
08:25 1025 30.27 854 25.22 -13.2 8.3 66 -18.2 -0.7
08:30 1025 30.27 854 25.22 -13 8.7 66 -18.1 -0.7
08:35 1025 30.27 854 25.22 -13.1 8.4 67 -18 -0.4
08:40 1025 30.27 854 25.22 -13 8.7 66 -18.1 -0.7
08:45 1025 30.27 854 25.22 -12.5 9.5 64 -17.9 -0.2
08:50 1025 30.27 854 25.22 -12.4 9.7 66 -17.6 0.3
08:55 1025 30.27 854 25.22 -12.5 9.6 66 -17.7 0.2
09:00 1025 30.27 854 25.22 -12.4 9.8 67 -17.3 0.9
09:05 1025 30.27 854 25.22 -12.9 8.8 68 -17.6 0.3
09:10 1025 30.27 854 25.22 -13.5 7.7 70 -17.8 -0.1
09:15 1025 30.27 854 25.22 -13.9 7 72 -17.9 -0.2
09:20 1025 30.27 854 25.22 -13.4 7.9 68 -18.1 -0.5
09:25 1025 30.27 854 25.22 -12.9 8.9 65 -18.1 -0.6
09:30 1025 30.27 854 25.22 -12.3 10 63 -18 -0.4
09:35 1025 30.27 854 25.22 -12.1 10.3 62 -17.9 -0.2
09:40 1025 30.27 854 25.22 -11.5 11.4 60 -17.9 -0.1
09:45 1025 30.27 854 25.22 -11.4 11.6 59 -17.8 -0.1
09:50 1025 30.27 854 25.22 -11.6 11.2 60 -17.8 0
09:55 1025 30.27 854 25.22 -11.7 11 60 -18 -0.3
10:00 1025 30.27 854 25.22 -11.3 11.7 59 -17.8 -0
10:05 1025 30.27 854 25.22 -10.9 12.3 59 -17.5 0.4
10:10 1025 30.27 854 25.22 -10.9 12.5 58 -17.5 0.5
10:15 1025 30.27 854 25.22 -10.7 12.7 58 -17.4 0.6
10:20 1025 30.27 854 25.22 -10.5 13.1 58 -17.4 0.7
10:25 1025 30.27 854 25.22 -10.6 13 57 -17.5 0.5
10:30 1025 30.27 854 25.22 -10.3 13.4 56 -17.5 0.5
10:35 1025 30.27 854 25.22 -9.9 14.2 55 -17.4 0.8
10:40 1025 30.27 854 25.22 -9.6 14.8 54 -17.2 1
10:45 1025 30.27 854 25.22 -9.3 15.4 54 -17 1.4
10:50 1025 30.27 854 25.22 -8.9 16 53 -16.9 1.6
10:55 1025 30.27 854 25.22 -8.6 16.5 51 -17 1.4
11:00 1025 30.27 854 25.22 -8 17.7 50 -16.7 1.9
11:05 1025 30.27 854 25.22 -7.4 18.7 48 -16.6 2.1
11:10 1025 30.27 854 25.22 -7 19.3 47 -16.5 2.3
11:15 1025 30.27 854 25.22 -7 19.3 49 -15.9 3.3
11:20 1025 30.27 854 25.22 -7.5 18.5 51 -16.1 3
11:25 1025 30.27 854 25.22 -7.4 18.7 49 -16.3 2.7
11:30 1025 30.27 854 25.22 -7.3 18.9 51 -15.9 3.4
11:35 1025 30.27 854 25.22 -7.1 19.3 50 -15.7 3.7
11:40 1025 30.27 855 25.25 -6.9 19.5 51 -15.5 4.1
11:45 1025 30.27 854 25.22 -7 19.4 51 -15.5 4
11:50 1025 30.27 854 25.22 -6.9 19.5 51 -15.5 4.1
11:55 1025 30.27 854 25.22 -7.4 18.8 52 -15.6 3.9
12:00 1025 30.27 854 25.22 -7.5 18.4 53 -15.6 3.9
12:05 1025 30.27 854 25.22 -7.6 18.4 52 -15.7 3.7
12:10 1025 30.27 854 25.22 -7.2 19.1 51 -15.7 3.7
12:15 1025 30.27 854 25.22 -7 19.4 51 -15.6 3.9
12:20 1025 30.27 854 25.22 -7.3 19 52 -15.6 4
12:25 1025 30.27 854 25.22 -7.3 19 51 -15.6 3.8
12:30 1025 30.27 854 25.22 -7 19.4 50 -15.7 3.8
12:35 1025 30.27 854 25.22 -6.7 20 49 -15.6 3.9
12:40 1025 30.27 854 25.22 -6.7 20 52 -15.1 4.9
12:45 1025 30.27 854 25.22 -6.8 19.8 51 -15.2 4.6
12:50 1025 30.27 854 25.22 -6.6 20.1 49 -15.7 3.8
12:55 1025 30.27 854 25.22 -6.3 20.7 49 -15.4 4.3
13:00 1025 30.27 854 25.22 -6.3 20.6 49 -15.4 4.3
13:05 1025 30.27 854 25.22 -6.2 20.9 48 -15.6 4
13:10 1025 30.27 854 25.22 -6 21.1 48 -15.3 4.4
13:15 1025 30.27 854 25.22 -5.5 22.1 46 -15.3 4.4
13:20 1025 30.27 854 25.22 -5.1 22.8 46 -15 5
13:25 1025 30.27 854 25.22 -5 23 46 -14.8 5.3
13:30 1025 30.27 854 25.22 -5 23.1 47 -14.7 5.5
13:35 1024 30.24 854 25.22 -5.4 22.3 49 -14.6 5.7
13:40 1024 30.24 854 25.22 -5.7 21.8 49 -14.7 5.5
13:45 1024 30.24 854 25.22 -5.7 21.8 49 -14.7 5.5
13:50 1024 30.24 854 25.22 -5.6 21.8 49 -14.7 5.5
13:55 1024 30.24 854 25.22 -5.4 22.3 50 -14.3 6.2
14:00 1024 30.24 853 25.19 -5 22.9 48 -14.5 5.9
14:05 1024 30.24 853 25.19 -5 23 47 -14.6 5.6
14:10 1024 30.24 853 25.19 -4.9 23.1 48 -14.4 6.1
14:15 1024 30.24 853 25.19 -4.8 23.3 46 -14.8 5.4
14:20 1024 30.24 853 25.19 -4.3 24.2 46 -14.4 6.1
14:25 1024 30.24 853 25.19 -4.5 23.8 46 -14.6 5.7
14:30 1024 30.24 853 25.19 -4.1 24.5 45 -14.4 6.1
14:35 1024 30.24 853 25.19 -4.5 24 47 -14.3 6.3
14:40 1024 30.24 853 25.19 -4.4 24 47 -14.3 6.3
14:45 1024 30.24 853 25.19 -4.1 24.6 45 -14.5 5.9
14:50 1024 30.24 853 25.19 -3.6 25.6 44 -14.3 6.3
14:55 1024 30.24 853 25.19 -3.4 25.8 43 -14.4 6.1
15:00 1024 30.24 853 25.19 -3.3 26 43 -14.2 6.4
15:05 1024 30.24 853 25.19 -3.1 26.4 42 -14.3 6.2
15:10 1024 30.24 853 25.19 -3.2 26.2 41 -14.6 5.7
15:15 1024 30.24 853 25.19 -2.9 26.9 41 -14.3 6.3
15:20 1024 30.24 853 25.19 -2.7 27.1 41 -14.3 6.2
15:25 1024 30.24 853 25.19 -2.5 27.4 41 -14.1 6.7
15:30 1024 30.24 853 25.19 -2.7 27.1 42 -14.1 6.7
15:35 1024 30.24 853 25.19 -2.7 27.1 42 -14 6.7
15:40 1024 30.24 853 25.19 -2.6 27.3 41 -14.2 6.4
15:45 1024 30.24 853 25.19 -2.4 27.7 41 -13.9 6.9
15:50 1024 30.24 853 25.19 -2.2 28 39 -14.3 6.2
15:55 1024 30.24 853 25.19 -1.8 28.8 38 -14.4 6
16:00 1024 30.24 853 25.19 -1.7 29 38 -14.3 6.3
16:05 1024 30.24 853 25.19 -1.8 28.7 39 -14.1 6.7
16:10 1024 30.24 853 25.19 -2 28.3 39 -14.2 6.4
16:15 1024 30.24 853 25.19 -2.1 28.3 39 -14.4 6.1
16:20 1024 30.24 853 25.19 -2 28.3 36 -15.1 4.8
16:25 1024 30.24 853 25.19 -2.9 26.8 41 -14.5 5.9
16:30 1024 30.24 853 25.19 -3.4 25.9 41 -14.9 5.1
16:35 1024 30.24 853 25.19 -3.1 26.4 40 -14.9 5.2
16:40 1024 30.24 853 25.19 -3.4 25.9 43 -14.3 6.2
16:45 1024 30.24 853 25.19 -3.7 25.3 43 -14.6 5.7
16:50 1024 30.24 853 25.19 -3.7 25.3 42 -14.8 5.4
16:55 1024 30.24 853 25.19 -4.4 24.1 45 -14.6 5.7
17:00 1024 30.24 853 25.19 -4.5 23.8 45 -14.8 5.4
17:05 1024 30.24 853 25.19 -4.4 24.1 44 -14.8 5.4
17:10 1024 30.24 853 25.19 -4.5 23.8 45 -14.8 5.3
17:15 1024 30.24 853 25.19 -5.4 22.3 49 -14.5 6
17:20 1024 30.24 853 25.19 -5.7 21.7 50 -14.6 5.8
17:25 1024 30.24 853 25.19 -5.8 21.6 51 -14.5 5.9
17:30 1024 30.24 853 25.19 -6.2 20.8 53 -14.3 6.3
17:35 1024 30.24 853 25.19 -6.6 20.2 55 -14.3 6.3
17:40 1024 30.24 853 25.19 -6.9 19.6 55 -14.4 6.1
17:45 1024 30.24 853 25.19 -7.1 19.3 57 -14.3 6.3
17:50 1024 30.24 853 25.19 -7.2 19.1 57 -14.3 6.3
17:55 1024 30.24 853 25.19 -7.3 18.8 58 -14.2 6.4
18:00 1024 30.24 853 25.19 -7.4 18.8 58 -14.2 6.4
18:05 1024 30.24 853 25.19 -7.2 19.1 58 -14.2 6.4
18:10 1024 30.24 853 25.19 -7.1 19.3 58 -14 6.8
18:15 1024 30.24 853 25.19 -7.2 19 58 -14 6.7
18:20 1024 30.24 853 25.19 -7.2 19 59 -14 6.8
18:25 1024 30.24 853 25.19 -7.3 18.8 60 -13.9 7
18:30 1024 30.24 853 25.19 -7.6 18.3 61 -14 6.9
18:35 1024 30.24 853 25.19 -7.7 18.1 61 -14 6.8
18:40 1024 30.24 853 25.19 -7.7 18.2 60 -14.1 6.6
18:45 1024 30.24 853 25.19 -7.7 18.1 58 -14.6 5.7
18:50 1024 30.24 853 25.19 -7.8 18 57 -14.8 5.4
18:55 1024 30.24 853 25.19 -7.7 18.1 57 -14.8 5.3
19:00 1024 30.24 853 25.19 -7.6 18.3 58 -14.6 5.8
19:05 1024 30.24 853 25.19 -7.8 18 57 -15 5
19:10 1024 30.24 853 25.19 -8.2 17.2 57 -15.4 4.3
19:15 1024 30.24 853 25.19 -8.4 16.8 58 -15.3 4.4
19:20 1023 30.21 853 25.19 -8.1 17.5 55 -15.7 3.7
19:25 1023 30.21 853 25.19 -7.8 18 55 -15.4 4.2
19:30 1023 30.21 853 25.19 -7.8 18 56 -15.1 4.8
19:35 1023 30.21 853 25.19 -7.8 17.9 54 -15.5 4.1
19:40 1023 30.21 853 25.19 -7.7 18.1 55 -15.2 4.7
19:45 1023 30.21 853 25.19 -8.1 17.5 56 -15.4 4.4
19:50 1023 30.21 853 25.19 -8.2 17.2 56 -15.6 3.9
19:55 1023 30.21 853 25.19 -8.1 17.4 53 -16 3.2
20:00 1023 30.21 853 25.19 -7.6 18.3 51 -16.1 3
20:05 1023 30.21 853 25.19 -7.5 18.6 50 -16.1 3
20:10 1023 30.21 853 25.19 -7.6 18.4 51 -16 3.1
20:15 1024 30.24 853 25.19 -7.7 18.2 54 -15.5 4.1
20:20 1024 30.24 853 25.19 -8 17.5 57 -15.1 4.8
20:25 1024 30.24 853 25.19 -8.3 17.1 57 -15.4 4.3
20:30 1023 30.21 853 25.19 -8.3 17 57 -15.3 4.4
20:35 1023 30.21 853 25.19 -8.6 16.6 58 -15.4 4.3
20:40 1023 30.21 853 25.19 -8.5 16.7 59 -15.2 4.7
20:45 1023 30.21 853 25.19 -8.6 16.4 60 -15.1 4.9
20:50 1023 30.21 852 25.16 -8.8 16.1 60 -15.2 4.6
20:55 1023 30.21 852 25.16 -8.8 16.2 61 -14.9 5.1
21:00 1023 30.21 852 25.16 -9.1 15.7 61 -15.2 4.7
21:05 1023 30.21 852 25.16 -9.1 15.6 61 -15.3 4.5
21:10 1023 30.21 852 25.16 -8.9 16 61 -15.2 4.6
21:15 1023 30.21 852 25.16 -8.8 16.2 60 -15.2 4.6
21:20 1023 30.21 852 25.16 -8.8 16.1 60 -15.3 4.4
21:25 1023 30.21 852 25.16 -8.8 16.1 59 -15.5 4.2
21:30 1023 30.21 852 25.16 -8.9 16 61 -15.1 4.9
21:35 1023 30.21 852 25.16 -9.1 15.7 60 -15.4 4.3
21:40 1023 30.21 852 25.16 -9.1 15.6 60 -15.5 4.2
21:45 1023 30.21 852 25.16 -9 15.8 61 -15.2 4.6
21:50 1023 30.21 852 25.16 -9.1 15.6 59 -15.7 3.7
21:55 1023 30.21 852 25.16 -8.7 16.4 56 -15.9 3.3
22:00 1023 30.21 852 25.16 -8.4 16.9 54 -16.1 3.1
22:05 1023 30.21 852 25.16 -8.2 17.2 55 -15.7 3.7
22:10 1023 30.21 852 25.16 -8.2 17.3 57 -15.4 4.3
22:15 1023 30.21 852 25.16 -8.3 17 57 -15.5 4.2
22:20 1023 30.21 852 25.16 -8.6 16.5 58 -15.4 4.3
22:25 1023 30.21 852 25.16 -8.5 16.8 57 -15.6 3.9
22:30 1023 30.21 852 25.16 -8.3 17.1 56 -15.6 3.8
22:35 1023 30.21 852 25.16 -8 17.7 55 -15.6 4
22:40 1023 30.21 852 25.16 -7.8 18 55 -15.3 4.5
22:45 1022 30.18 852 25.16 -7.8 17.9 55 -15.3 4.4
22:50 1022 30.18 852 25.16 -8.2 17.3 56 -15.4 4.2
22:55 1022 30.18 852 25.16 -8.2 17.3 56 -15.5 4.1
23:00 1022 30.18 852 25.16 -7.5 18.6 53 -15.5 4.1
23:05 1022 30.18 852 25.16 -7.1 19.2 52 -15.4 4.3
23:10 1022 30.18 851 25.13 -7 19.4 52 -15.3 4.4
23:15 1022 30.18 851 25.13 -7 19.4 52 -15.4 4.4
23:20 1022 30.18 851 25.13 -7 19.4 52 -15.2 4.7
23:25 1022 30.18 851 25.13 -7.1 19.3 53 -15.1 4.8
23:30 1022 30.18 851 25.13 -7.1 19.3 53 -15 4.9
23:35 1022 30.18 851 25.13 -6.9 19.5 53 -15.1 4.8
23:40 1022 30.18 851 25.13 -6.9 19.6 53 -14.8 5.3
23:45 1022 30.18 851 25.13 -7.1 19.3 55 -14.7 5.6
23:50 1022 30.18 851 25.13 -7.1 19.2 60 -13.6 7.5
23:55 1022 30.18 851 25.13 -7.3 18.8 61 -13.7 7.4
24:00 1022 30.18 851 25.13 -8 17.7 65 -13.5 7.7